createdAt,value
2022-08-26T00:02:01.871Z,69.40
2022-08-26T00:04:30.227Z,69.40
2022-08-26T00:06:57.842Z,69.40
2022-08-26T00:09:26.388Z,69.30
2022-08-26T00:11:54.616Z,69.30
2022-08-26T00:14:28.254Z,69.20
2022-08-26T00:16:55.955Z,69.30
2022-08-26T00:19:23.826Z,69.40
2022-08-26T00:21:51.509Z,69.50
2022-08-26T00:24:21.815Z,69.60
2022-08-26T00:26:49.687Z,69.60
2022-08-26T00:29:17.733Z,69.40
2022-08-26T00:31:45.596Z,69.60
2022-08-26T00:34:15.401Z,69.80
2022-08-26T00:36:43.706Z,69.70
2022-08-26T00:39:11.465Z,69.50
2022-08-26T00:41:40.715Z,69.50
2022-08-26T00:44:11.273Z,69.80
2022-08-26T00:46:46.776Z,70.10
2022-08-26T00:49:29.902Z,70.60
2022-08-26T00:52:01.879Z,70.90
2022-08-26T00:54:34.889Z,70.50
2022-08-26T00:57:16.381Z,71.00
2022-08-26T00:59:48.231Z,70.40
2022-08-26T01:02:20.006Z,70.30
2022-08-26T01:04:56.428Z,70.30
2022-08-26T01:07:30.281Z,70.40
2022-08-26T01:10:02.549Z,70.50
2022-08-26T01:12:43.291Z,70.60
2022-08-26T01:15:18.153Z,70.60
2022-08-26T01:17:45.452Z,70.50
2022-08-26T01:20:47.204Z,70.40
2022-08-26T01:23:15.391Z,71.50
2022-08-26T01:25:53.387Z,70.40
2022-08-26T01:28:28.122Z,70.60
2022-08-26T01:30:57.966Z,70.80
2022-08-26T01:33:56.945Z,70.80
2022-08-26T01:36:25.144Z,71.20
2022-08-26T01:38:52.946Z,70.40
2022-08-26T01:41:27.241Z,70.40
2022-08-26T01:43:58.010Z,70.50
2022-08-26T01:46:28.364Z,70.60
2022-08-26T01:48:59.464Z,70.80
2022-08-26T01:51:28.405Z,70.70
2022-08-26T01:53:55.974Z,70.50
2022-08-26T01:56:24.683Z,70.40
2022-08-26T01:59:04.119Z,70.40
2022-08-26T02:01:32.004Z,70.40
2022-08-26T02:04:26.487Z,70.50
2022-08-26T02:06:54.304Z,71.70
2022-08-26T02:09:22.638Z,70.80
2022-08-26T02:11:51.205Z,70.80
2022-08-26T02:14:27.873Z,70.80
2022-08-26T02:16:56.383Z,71.30
2022-08-26T02:19:32.806Z,71.00
2022-08-26T02:22:03.340Z,71.20
2022-08-26T02:24:51.332Z,71.10
2022-08-26T02:27:32.099Z,71.80
2022-08-26T02:30:13.929Z,70.80
2022-08-26T02:32:41.886Z,70.80
2022-08-26T02:35:13.666Z,70.80
2022-08-26T02:37:45.667Z,71.20
2022-08-26T02:40:16.135Z,71.30
2022-08-26T02:42:43.389Z,71.40
2022-08-26T02:45:11.557Z,71.40
2022-08-26T02:47:39.309Z,71.60
2022-08-26T02:50:08.152Z,71.60
2022-08-26T02:52:35.450Z,71.60
2022-08-26T02:55:02.896Z,71.60
2022-08-26T02:57:31.369Z,71.60
2022-08-26T03:00:00.827Z,71.70
2022-08-26T03:02:29.015Z,71.70
2022-08-26T03:04:57.903Z,71.70
2022-08-26T03:07:30.071Z,71.60
2022-08-26T03:09:58.299Z,71.60
2022-08-26T03:12:25.932Z,71.70
2022-08-26T03:14:53.415Z,71.60
2022-08-26T03:17:21.180Z,71.70
2022-08-26T03:19:51.821Z,71.60
2022-08-26T03:22:22.058Z,71.70
2022-08-26T03:24:50.135Z,71.80
2022-08-26T03:27:18.944Z,71.90
2022-08-26T03:30:04.673Z,72.00
2022-08-26T03:32:31.887Z,71.90
2022-08-26T03:34:59.011Z,71.80
2022-08-26T03:37:26.314Z,71.90
2022-08-26T03:39:54.604Z,72.10
2022-08-26T03:42:22.271Z,72.10
2022-08-26T03:44:50.146Z,72.10
2022-08-26T03:47:17.793Z,72.30
2022-08-26T03:49:44.957Z,72.40
2022-08-26T03:54:54.758Z,72.50
2022-08-26T03:57:21.927Z,72.50
2022-08-26T03:59:49.436Z,72.50
2022-08-26T04:02:19.165Z,72.40
2022-08-26T04:04:46.272Z,72.40
2022-08-26T04:07:13.912Z,72.40
2022-08-26T04:09:42.499Z,72.50
2022-08-26T04:12:10.810Z,72.80
2022-08-26T04:14:39.160Z,72.90
2022-08-26T04:17:06.527Z,73.00
2022-08-26T04:19:36.492Z,72.90
2022-08-26T04:22:03.778Z,72.90
2022-08-26T04:24:31.489Z,72.90
2022-08-26T04:26:58.801Z,72.90
2022-08-26T04:29:27.627Z,72.90
2022-08-26T04:31:56.424Z,73.00
2022-08-26T04:34:27.182Z,73.00
2022-08-26T04:36:56.561Z,72.80
2022-08-26T04:39:25.227Z,72.80
2022-08-26T04:41:55.133Z,72.90
2022-08-26T04:44:25.034Z,72.90
2022-08-26T04:46:52.682Z,72.90
2022-08-26T04:49:20.889Z,72.90
2022-08-26T04:51:48.959Z,72.90
2022-08-26T04:54:16.852Z,73.00
2022-08-26T04:56:49.587Z,73.20
2022-08-26T04:59:18.400Z,73.30
2022-08-26T05:01:51.847Z,73.30
2022-08-26T05:04:20.975Z,73.70
2022-08-26T05:06:49.512Z,73.50
2022-08-26T05:09:18.695Z,73.50
2022-08-26T05:11:51.886Z,73.50
2022-08-26T05:14:21.618Z,73.50
2022-08-26T05:16:49.654Z,73.50
2022-08-26T05:19:19.137Z,73.70
2022-08-26T05:21:48.646Z,73.70
2022-08-26T05:24:17.414Z,73.70
2022-08-26T05:26:45.137Z,73.80
2022-08-26T05:29:14.013Z,73.80
2022-08-26T05:31:41.788Z,73.90
2022-08-26T05:34:09.247Z,74.10
2022-08-26T05:36:37.188Z,74.20
2022-08-26T05:39:07.335Z,74.40
2022-08-26T05:41:38.809Z,74.40
2022-08-26T05:44:10.943Z,74.40
2022-08-26T05:46:41.208Z,74.40
2022-08-26T05:49:12.451Z,74.50
2022-08-26T05:51:47.482Z,74.80
2022-08-26T05:54:22.214Z,74.80
2022-08-26T05:56:51.585Z,74.70
2022-08-26T05:59:24.147Z,74.80
2022-08-26T06:01:54.671Z,75.00
2022-08-26T06:04:23.267Z,74.90
2022-08-26T06:06:53.963Z,75.10
2022-08-26T06:09:21.184Z,75.20
2022-08-26T06:11:48.809Z,75.10
2022-08-26T06:14:17.559Z,75.10
2022-08-26T06:16:46.493Z,75.10
2022-08-26T06:19:15.755Z,75.10
2022-08-26T06:21:54.144Z,75.10
2022-08-26T06:24:41.386Z,75.10
2022-08-26T06:27:13.590Z,74.90
2022-08-26T06:29:41.851Z,74.90
2022-08-26T06:32:08.948Z,75.10
2022-08-26T06:34:36.145Z,75.20
2022-08-26T06:37:03.767Z,75.20
2022-08-26T06:39:31.850Z,75.20
2022-08-26T06:42:00.704Z,75.30
2022-08-26T06:44:30.600Z,75.10
2022-08-26T06:46:59.678Z,75.10
2022-08-26T06:49:27.777Z,75.10
2022-08-26T06:52:01.168Z,74.90
2022-08-26T06:54:31.911Z,74.70
2022-08-26T06:57:01.235Z,74.40
2022-08-26T06:59:28.520Z,73.90
2022-08-26T07:01:56.637Z,73.80
2022-08-26T07:04:25.075Z,73.60
2022-08-26T07:06:56.043Z,73.50
2022-08-26T07:09:27.318Z,73.50
2022-08-26T07:11:58.074Z,73.20
2022-08-26T07:14:26.234Z,72.80
2022-08-26T07:16:54.501Z,72.40
2022-08-26T07:19:30.565Z,72.20
2022-08-26T07:22:04.566Z,72.10
2022-08-26T07:24:38.352Z,71.70
2022-08-26T07:27:10.681Z,71.40
2022-08-26T07:29:40.194Z,71.30
2022-08-26T07:32:08.294Z,71.40
2022-08-26T07:34:37.752Z,71.10
2022-08-26T07:37:06.083Z,71.20
2022-08-26T07:39:36.360Z,71.10
2022-08-26T07:42:07.783Z,70.80
2022-08-26T07:44:36.947Z,70.70
2022-08-26T07:47:19.385Z,70.60
2022-08-26T07:49:54.633Z,70.20
2022-08-26T07:52:26.359Z,70.20
2022-08-26T07:54:55.250Z,69.90
2022-08-26T07:57:22.429Z,69.80
2022-08-26T07:59:54.070Z,69.20
2022-08-26T08:02:23.874Z,68.80
2022-08-26T08:04:52.450Z,68.70
2022-08-26T08:07:19.601Z,68.60
2022-08-26T08:09:51.353Z,68.80
2022-08-26T08:12:20.053Z,68.60
2022-08-26T08:14:48.768Z,68.40
2022-08-26T08:17:16.644Z,68.10
2022-08-26T08:19:43.858Z,68.20
2022-08-26T08:22:17.878Z,68.00
2022-08-26T08:24:49.984Z,67.50
2022-08-26T08:27:23.844Z,67.30
2022-08-26T08:29:54.950Z,67.10
2022-08-26T08:32:24.116Z,67.00
2022-08-26T08:34:51.629Z,66.60
2022-08-26T08:37:18.920Z,66.50
2022-08-26T08:39:46.114Z,66.30
2022-08-26T08:42:40.108Z,66.10
2022-08-26T08:45:36.300Z,64.30
2022-08-26T08:48:29.736Z,64.90
2022-08-26T08:51:24.696Z,62.80
2022-08-26T08:53:54.684Z,64.30
2022-08-26T08:56:37.750Z,65.00
2022-08-26T08:59:32.468Z,64.70
2022-08-26T09:02:34.391Z,64.00
2022-08-26T09:05:31.735Z,62.90
2022-08-26T09:08:19.879Z,63.40
2022-08-26T09:10:53.954Z,63.10
2022-08-26T09:13:25.456Z,63.60
2022-08-26T09:16:19.177Z,63.00
2022-08-26T09:19:18.819Z,62.00
2022-08-26T09:21:46.621Z,62.20
2022-08-26T09:24:22.386Z,62.80
2022-08-26T09:26:57.862Z,62.30
2022-08-26T09:29:42.876Z,62.20
2022-08-26T09:32:24.417Z,61.20
2022-08-26T09:34:59.271Z,61.80
2022-08-26T09:37:43.858Z,61.30
2022-08-26T09:40:34.542Z,60.60
2022-08-26T09:43:23.230Z,60.30
2022-08-26T09:45:59.147Z,60.60
2022-08-26T09:48:36.101Z,60.50
2022-08-26T09:51:24.787Z,60.40
2022-08-26T09:54:01.526Z,60.40
2022-08-26T09:56:33.633Z,60.20
2022-08-26T09:59:02.777Z,60.40
2022-08-26T10:02:16.908Z,60.10
2022-08-26T10:04:52.410Z,58.30
2022-08-26T10:07:49.200Z,58.00
2022-08-26T10:10:34.854Z,57.90
2022-08-26T10:13:17.082Z,57.50
2022-08-26T10:16:17.896Z,57.50
2022-08-26T10:19:10.993Z,57.90
2022-08-26T10:22:27.281Z,57.60
2022-08-26T10:24:59.774Z,57.90
2022-08-26T10:28:00.163Z,58.60
2022-08-26T10:30:43.014Z,57.50
2022-08-26T10:33:15.446Z,57.40
2022-08-26T10:35:59.398Z,57.80
2022-08-26T10:38:39.166Z,56.30
2022-08-26T10:41:18.257Z,56.10
2022-08-26T10:44:00.718Z,56.80
2022-08-26T10:46:44.749Z,56.30
2022-08-26T10:49:17.916Z,56.10
2022-08-26T10:52:00.357Z,56.70
2022-08-26T10:54:55.151Z,55.90
2022-08-26T10:57:36.675Z,54.70
2022-08-26T11:00:30.103Z,56.00
2022-08-26T11:03:47.368Z,55.20
2022-08-26T11:06:20.073Z,53.90
2022-08-26T11:09:01.578Z,55.20
2022-08-26T11:11:41.047Z,55.10
2022-08-26T11:14:39.513Z,55.10
2022-08-26T11:17:47.246Z,55.70
2022-08-26T11:20:23.921Z,55.40
2022-08-26T11:22:54.344Z,55.70
2022-08-26T11:25:29.954Z,56.20
2022-08-26T11:28:01.066Z,56.30
2022-08-26T11:30:41.043Z,55.90
2022-08-26T11:33:09.207Z,56.10
2022-08-26T11:35:37.456Z,56.80
2022-08-26T11:38:29.269Z,57.00
2022-08-26T11:41:14.363Z,56.20
2022-08-26T11:43:42.622Z,56.30
2022-08-26T11:46:12.957Z,56.80
2022-08-26T11:48:43.681Z,56.80
2022-08-26T11:51:24.606Z,56.50
2022-08-26T11:53:52.026Z,55.50
2022-08-26T11:56:33.282Z,56.40
2022-08-26T11:59:11.614Z,55.80
2022-08-26T12:01:44.209Z,55.60
2022-08-26T12:04:24.159Z,55.90
2022-08-26T12:06:53.347Z,55.70
2022-08-26T12:09:29.522Z,55.90
2022-08-26T12:12:24.386Z,55.20
2022-08-26T12:15:19.779Z,55.10
2022-08-26T12:17:52.965Z,54.80
2022-08-26T12:20:46.328Z,55.50
2022-08-26T12:23:28.261Z,54.60
2022-08-26T12:26:10.454Z,55.60
2022-08-26T12:28:49.441Z,54.80
2022-08-26T12:31:26.939Z,54.60
2022-08-26T12:33:56.868Z,54.90
2022-08-26T12:36:33.588Z,54.80
2022-08-26T12:39:14.579Z,55.00
2022-08-26T12:41:50.118Z,54.60
2022-08-26T12:44:53.350Z,54.50
2022-08-26T12:47:43.121Z,54.70
2022-08-26T12:50:31.798Z,54.90
2022-08-26T12:53:10.912Z,54.80
2022-08-26T12:55:44.133Z,55.00
2022-08-26T12:58:22.013Z,55.00
2022-08-26T13:00:56.439Z,55.00
2022-08-26T13:03:37.565Z,54.70
2022-08-26T13:06:22.537Z,54.50
2022-08-26T13:08:54.602Z,54.40
2022-08-26T13:11:55.686Z,54.70
2022-08-26T13:14:24.896Z,54.30
2022-08-26T13:16:53.395Z,54.50
2022-08-26T13:19:24.025Z,54.50
2022-08-26T13:21:57.951Z,54.40
2022-08-26T13:24:44.895Z,54.20
2022-08-26T13:27:14.346Z,52.90
2022-08-26T13:29:41.908Z,53.60
2022-08-26T13:32:10.105Z,53.40
2022-08-26T13:34:38.714Z,53.10
2022-08-26T13:37:06.635Z,52.90
2022-08-26T13:39:34.000Z,52.90
2022-08-26T13:42:01.339Z,53.00
2022-08-26T13:44:28.712Z,52.70
2022-08-26T13:46:55.923Z,52.70
2022-08-26T13:49:23.153Z,52.60
2022-08-26T13:51:50.327Z,52.40
2022-08-26T13:54:17.580Z,52.30
2022-08-26T13:56:45.222Z,52.50
2022-08-26T13:59:12.389Z,52.50
2022-08-26T14:01:40.199Z,52.10
2022-08-26T14:04:08.420Z,52.00
2022-08-26T14:06:35.798Z,51.80
2022-08-26T14:09:03.450Z,51.60
2022-08-26T14:11:41.232Z,51.50
2022-08-26T14:14:18.032Z,51.80
2022-08-26T14:16:58.966Z,51.60
2022-08-26T14:19:30.860Z,51.60
2022-08-26T14:22:00.921Z,51.30
2022-08-26T14:24:29.110Z,51.30
2022-08-26T14:26:56.359Z,51.30
2022-08-26T14:29:23.681Z,51.20
2022-08-26T14:31:50.863Z,51.10
2022-08-26T14:34:18.502Z,50.90
2022-08-26T14:36:45.676Z,51.00
2022-08-26T14:39:14.750Z,50.90
2022-08-26T14:41:54.198Z,50.60
2022-08-26T14:44:27.201Z,50.40
2022-08-26T14:46:55.222Z,50.70
2022-08-26T14:49:24.388Z,50.70
2022-08-26T14:51:51.557Z,50.80
2022-08-26T14:54:19.799Z,50.90
2022-08-26T14:57:01.771Z,50.80
2022-08-26T14:59:38.507Z,50.20
2022-08-26T15:02:11.454Z,50.00
2022-08-26T15:04:41.920Z,50.30
2022-08-26T15:07:09.516Z,50.70
2022-08-26T15:09:40.375Z,50.90
2022-08-26T15:12:07.714Z,51.10
2022-08-26T15:14:35.041Z,51.10
2022-08-26T15:17:02.446Z,51.10
2022-08-26T15:19:29.835Z,51.10
2022-08-26T15:21:57.234Z,51.10
2022-08-26T15:24:28.851Z,50.90
2022-08-26T15:26:56.199Z,50.70
2022-08-26T15:29:24.179Z,50.60
2022-08-26T15:31:51.498Z,50.30
2022-08-26T15:34:22.487Z,50.50
2022-08-26T15:36:49.577Z,50.40
2022-08-26T15:39:17.463Z,50.40
2022-08-26T15:41:45.176Z,50.40
2022-08-26T15:44:14.252Z,50.30
2022-08-26T15:46:42.662Z,50.20
2022-08-26T15:49:12.867Z,50.10
2022-08-26T15:51:47.959Z,50.00
2022-08-26T15:54:17.956Z,49.60
2022-08-26T15:56:46.660Z,49.30
2022-08-26T15:59:15.955Z,49.10
2022-08-26T16:01:43.599Z,48.80
2022-08-26T16:04:11.621Z,48.60
2022-08-26T16:06:41.377Z,48.40
2022-08-26T16:09:11.181Z,48.20
2022-08-26T16:11:38.898Z,47.90
2022-08-26T16:14:07.864Z,47.70
2022-08-26T16:16:39.482Z,47.20
2022-08-26T16:19:08.496Z,46.70
2022-08-26T16:21:36.438Z,46.80
2022-08-26T16:24:05.434Z,46.60
2022-08-26T16:26:36.260Z,46.30
2022-08-26T16:29:08.727Z,45.90
2022-08-26T16:31:38.342Z,45.80
2022-08-26T16:34:07.608Z,45.60
2022-08-26T16:36:36.969Z,45.40
2022-08-26T16:39:06.734Z,45.30
2022-08-26T16:41:34.165Z,45.10
2022-08-26T16:44:01.685Z,44.80
2022-08-26T16:46:29.806Z,44.60
2022-08-26T16:48:58.797Z,44.30
2022-08-26T16:51:28.121Z,44.00
2022-08-26T16:53:57.605Z,43.80
2022-08-26T16:56:33.698Z,43.80
2022-08-26T16:59:07.225Z,43.60
2022-08-26T17:01:34.837Z,43.50
2022-08-26T17:04:02.061Z,43.30
2022-08-26T17:06:29.797Z,43.10
2022-08-26T17:08:57.016Z,43.10
2022-08-26T17:11:24.250Z,43.00
2022-08-26T17:13:51.432Z,43.20
2022-08-26T17:16:19.736Z,43.40
2022-08-26T17:18:48.469Z,43.80
2022-08-26T17:21:15.663Z,44.00
2022-08-26T17:23:44.878Z,44.30
2022-08-26T17:26:12.862Z,44.70
2022-08-26T17:28:40.865Z,44.90
2022-08-26T17:31:10.722Z,45.20
2022-08-26T17:33:39.497Z,45.80
2022-08-26T17:36:08.750Z,46.10
2022-08-26T17:38:37.886Z,46.40
2022-08-26T17:41:10.494Z,46.80
2022-08-26T17:43:38.407Z,47.30
2022-08-26T17:46:08.545Z,47.50
2022-08-26T17:48:37.911Z,47.90
2022-08-26T17:51:15.148Z,48.30
2022-08-26T17:53:43.008Z,48.90
2022-08-26T17:56:13.738Z,48.90
2022-08-26T17:58:41.361Z,49.40
2022-08-26T18:01:20.182Z,49.60
2022-08-26T18:03:48.061Z,49.80
2022-08-26T18:06:15.727Z,50.30
2022-08-26T18:08:44.033Z,50.60
2022-08-26T18:11:18.818Z,50.80
2022-08-26T18:13:47.645Z,51.40
2022-08-26T18:16:17.368Z,51.30
2022-08-26T18:18:46.580Z,51.70
2022-08-26T18:21:20.962Z,52.10
2022-08-26T18:23:50.073Z,52.80
2022-08-26T18:26:25.857Z,52.80
2022-08-26T18:28:53.699Z,53.00
2022-08-26T18:31:21.089Z,53.20
2022-08-26T18:33:48.578Z,53.50
2022-08-26T18:36:30.667Z,54.00
2022-08-26T18:38:58.769Z,55.10
2022-08-26T18:41:30.141Z,54.50
2022-08-26T18:43:57.844Z,54.80
2022-08-26T18:46:27.726Z,54.90
2022-08-26T18:48:56.799Z,55.20
2022-08-26T18:51:29.665Z,55.50
2022-08-26T18:53:58.104Z,55.80
2022-08-26T18:56:25.490Z,55.90
2022-08-26T18:58:52.860Z,56.00
2022-08-26T19:01:25.479Z,56.20
2022-08-26T19:03:55.558Z,56.40
2022-08-26T19:06:24.756Z,56.80
2022-08-26T19:08:52.341Z,56.90
2022-08-26T19:11:31.666Z,57.10
2022-08-26T19:14:03.853Z,57.30
2022-08-26T19:16:31.593Z,57.50
2022-08-26T19:19:00.723Z,57.40
2022-08-26T19:21:29.420Z,57.40
2022-08-26T19:23:59.013Z,57.60
2022-08-26T19:26:27.948Z,57.80
2022-08-26T19:28:55.356Z,58.00
2022-08-26T19:31:23.253Z,58.30
2022-08-26T19:33:50.600Z,58.50
2022-08-26T19:36:25.421Z,58.70
2022-08-26T19:38:53.547Z,58.70
2022-08-26T19:41:37.240Z,59.00
2022-08-26T19:44:38.076Z,59.20
2022-08-26T19:47:09.367Z,59.80
2022-08-26T19:49:37.051Z,59.40
2022-08-26T19:52:06.148Z,59.40
2022-08-26T19:54:34.604Z,59.60
2022-08-26T19:57:01.985Z,59.80
2022-08-26T19:59:29.522Z,59.80
2022-08-26T20:02:01.169Z,59.90
2022-08-26T20:04:31.259Z,59.80
2022-08-26T20:07:00.921Z,59.80
2022-08-26T20:09:34.297Z,59.90
2022-08-26T20:12:05.239Z,60.10
2022-08-26T20:14:34.013Z,60.00
2022-08-26T20:17:03.045Z,60.10
2022-08-26T20:19:48.758Z,60.30
2022-08-26T20:22:17.613Z,60.40
2022-08-26T20:24:46.033Z,60.70
2022-08-26T20:27:13.635Z,60.80
2022-08-26T20:29:42.069Z,61.00
2022-08-26T20:32:09.801Z,61.20
2022-08-26T20:34:38.173Z,61.40
2022-08-26T20:37:05.429Z,61.60
2022-08-26T20:39:32.805Z,61.80
2022-08-26T20:41:59.916Z,61.90
2022-08-26T20:44:27.538Z,61.90
2022-08-26T20:46:55.318Z,62.00
2022-08-26T20:49:22.894Z,62.20
2022-08-26T20:51:51.508Z,62.30
2022-08-26T20:54:25.015Z,62.20
2022-08-26T20:56:56.488Z,62.50
2022-08-26T20:59:24.486Z,62.70
2022-08-26T21:01:52.015Z,62.90
2022-08-26T21:04:25.278Z,63.10
2022-08-26T21:06:54.524Z,63.60
2022-08-26T21:09:27.319Z,63.40
2022-08-26T21:11:56.061Z,64.00
2022-08-26T21:14:25.694Z,63.60
2022-08-26T21:16:54.178Z,63.70
2022-08-26T21:19:21.719Z,63.80
2022-08-26T21:21:49.267Z,63.90
2022-08-26T21:24:17.319Z,64.10
2022-08-26T21:26:44.819Z,64.10
2022-08-26T21:29:13.790Z,64.10
2022-08-26T21:31:46.118Z,64.10
2022-08-26T21:34:16.951Z,64.10
2022-08-26T21:36:45.993Z,64.20
2022-08-26T21:39:15.080Z,64.30
2022-08-26T21:41:43.409Z,64.50
2022-08-26T21:44:13.003Z,64.70
2022-08-26T21:46:41.238Z,64.60
2022-08-26T21:49:12.383Z,64.60
2022-08-26T21:51:44.890Z,64.70
2022-08-26T21:54:13.054Z,64.70
2022-08-26T21:56:47.254Z,65.00
2022-08-26T21:59:18.189Z,65.40
2022-08-26T22:01:45.921Z,65.50
2022-08-26T22:04:13.599Z,65.40
2022-08-26T22:06:51.030Z,65.60
2022-08-26T22:09:22.638Z,66.30
2022-08-26T22:11:50.718Z,65.80
2022-08-26T22:14:22.020Z,65.80
2022-08-26T22:16:50.880Z,65.90
2022-08-26T22:19:20.277Z,66.00
2022-08-26T22:21:50.821Z,66.20
2022-08-26T22:24:20.684Z,66.50
2022-08-26T22:26:48.661Z,66.40
2022-08-26T22:29:16.366Z,66.40
2022-08-26T22:31:43.671Z,66.40
2022-08-26T22:34:15.740Z,66.40
2022-08-26T22:36:46.368Z,66.50
2022-08-26T22:39:17.346Z,66.60
2022-08-26T22:41:45.376Z,66.70
2022-08-26T22:44:12.933Z,66.70
2022-08-26T22:46:41.898Z,66.70
2022-08-26T22:49:14.831Z,66.70
2022-08-26T22:51:43.182Z,66.70
2022-08-26T22:54:10.710Z,66.80
2022-08-26T22:56:39.003Z,66.90
2022-08-26T22:59:08.061Z,67.00
2022-08-26T23:01:38.682Z,67.00
2022-08-26T23:04:07.455Z,67.20
2022-08-26T23:06:41.065Z,67.40
2022-08-26T23:09:09.591Z,67.40
2022-08-26T23:11:39.872Z,67.40
2022-08-26T23:14:09.658Z,67.40
2022-08-26T23:16:43.565Z,67.40
2022-08-26T23:19:13.177Z,67.30
2022-08-26T23:21:40.700Z,67.20
2022-08-26T23:24:09.382Z,67.30
2022-08-26T23:26:38.237Z,67.60
2022-08-26T23:29:08.094Z,67.70
2022-08-26T23:31:38.901Z,67.70
2022-08-26T23:34:24.734Z,67.70
2022-08-26T23:36:52.862Z,67.70
2022-08-26T23:39:21.599Z,67.70
2022-08-26T23:41:48.838Z,67.70
2022-08-26T23:44:16.753Z,67.70
2022-08-26T23:46:43.872Z,67.90
2022-08-26T23:49:11.113Z,67.90
2022-08-26T23:51:57.675Z,67.90
2022-08-26T23:54:24.994Z,68.00
2022-08-26T23:56:52.359Z,67.90
2022-08-26T23:59:19.477Z,68.20
